sensor_id;sensor_type;location;lat;lon;timestamp;P1;durP1;ratioP1;P2;durP2;ratioP2
4636;SDS011;2331;48.806;9.140;2024-01-15T00:00:59;31.85;;;14.40;;
4636;SDS011;2331;48.806;9.140;2024-01-15T00:03:26;26.38;;;13.20;;
4636;SDS011;2331;48.806;9.140;2024-01-15T00:05:53;33.40;;;14.85;;
4636;SDS011;2331;48.806;9.140;2024-01-15T00:08:20;29.98;;;14.52;;
4636;SDS011;2331;48.806;9.140;2024-01-15T00:10:47;30.90;;;14.48;;
4636;SDS011;2331;48.806;9.140;2024-01-15T00:13:14;26.55;;;13.23;;
4636;SDS011;2331;48.806;9.140;2024-01-15T00:15:41;25.70;;;13.45;;
4636;SDS011;2331;48.806;9.140;2024-01-15T00:18:10;25.75;;;13.20;;
4636;SDS011;2331;48.806;9.140;2024-01-15T00:20:37;25.52;;;12.88;;
4636;SDS011;2331;48.806;9.140;2024-01-15T00:23:04;23.02;;;11.40;;
4636;SDS011;2331;48.806;9.140;2024-01-15T00:25:30;24.35;;;12.93;;
4636;SDS011;2331;48.806;9.140;2024-01-15T00:27:57;26.65;;;12.98;;
4636;SDS011;2331;48.806;9.140;2024-01-15T00:30:24;23.35;;;11.90;;
4636;SDS011;2331;48.806;9.140;2024-01-15T00:32:50;24.90;;;11.77;;
4636;SDS011;2331;48.806;9.140;2024-01-15T00:35:18;24.95;;;11.75;;
4636;SDS011;2331;48.806;9.140;2024-01-15T00:37:45;26.20;;;12.20;;
4636;SDS011;2331;48.806;9.140;2024-01-15T00:40:12;23.08;;;11.75;;
4636;SDS011;2331;48.806;9.140;2024-01-15T00:42:38;22.67;;;12.63;;
4636;SDS011;2331;48.806;9.140;2024-01-15T00:45:05;22.63;;;12.13;;
4636;SDS011;2331;48.806;9.140;2024-01-15T00:47:33;28.70;;;14.18;;
4636;SDS011;2331;48.806;9.140;2024-01-15T00:49:59;23.58;;;11.90;;
4636;SDS011;2331;48.806;9.140;2024-01-15T00:52:27;28.73;;;13.27;;
4636;SDS011;2331;48.806;9.140;2024-01-15T00:54:54;25.55;;;12.85;;
4636;SDS011;2331;48.806;9.140;2024-01-15T00:57:21;28.45;;;13.02;;
4636;SDS011;2331;48.806;9.140;2024-01-15T00:59:47;26.67;;;12.48;;
4636;SDS011;2331;48.806;9.140;2024-01-15T01:02:14;26.70;;;13.25;;
4636;SDS011;2331;48.806;9.140;2024-01-15T01:04:41;23.08;;;11.27;;
4636;SDS011;2331;48.806;9.140;2024-01-15T01:07:07;24.80;;;11.80;;
4636;SDS011;2331;48.806;9.140;2024-01-15T01:09:35;26.27;;;11.52;;
4636;SDS011;2331;48.806;9.140;2024-01-15T01:12:02;23.42;;;11.77;;
4636;SDS011;2331;48.806;9.140;2024-01-15T01:14:29;25.27;;;11.85;;
4636;SDS011;2331;48.806;9.140;2024-01-15T01:16:56;25.00;;;13.00;;
4636;SDS011;2331;48.806;9.140;2024-01-15T01:19:22;22.45;;;10.82;;
4636;SDS011;2331;48.806;9.140;2024-01-15T01:21:50;24.58;;;12.57;;
4636;SDS011;2331;48.806;9.140;2024-01-15T01:24:17;19.27;;;10.60;;
4636;SDS011;2331;48.806;9.140;2024-01-15T01:26:45;23.65;;;12.15;;
4636;SDS011;2331;48.806;9.140;2024-01-15T01:29:12;22.55;;;10.73;;
4636;SDS011;2331;48.806;9.140;2024-01-15T01:31:42;25.45;;;11.88;;
4636;SDS011;2331;48.806;9.140;2024-01-15T01:34:09;23.10;;;11.00;;
4636;SDS011;2331;48.806;9.140;2024-01-15T01:36:35;24.42;;;11.70;;
4636;SDS011;2331;48.806;9.140;2024-01-15T01:39:02;24.75;;;11.20;;
4636;SDS011;2331;48.806;9.140;2024-01-15T01:41:29;25.58;;;12.10;;
4636;SDS011;2331;48.806;9.140;2024-01-15T01:43:57;24.52;;;10.77;;
4636;SDS011;2331;48.806;9.140;2024-01-15T01:46:23;24.52;;;10.57;;
4636;SDS011;2331;48.806;9.140;2024-01-15T01:48:51;21.80;;;11.77;;
4636;SDS011;2331;48.806;9.140;2024-01-15T01:51:18;25.10;;;11.10;;
4636;SDS011;2331;48.806;9.140;2024-01-15T01:53:45;20.75;;;10.80;;
4636;SDS011;2331;48.806;9.140;2024-01-15T01:56:12;18.27;;;9.88;;
4636;SDS011;2331;48.806;9.140;2024-01-15T01:58:39;23.42;;;11.38;;
4636;SDS011;2331;48.806;9.140;2024-01-15T02:01:07;20.63;;;11.32;;
4636;SDS011;2331;48.806;9.140;2024-01-15T02:03:34;20.25;;;10.55;;
4636;SDS011;2331;48.806;9.140;2024-01-15T02:06:01;21.15;;;10.80;;
4636;SDS011;2331;48.806;9.140;2024-01-15T02:08:28;20.35;;;10.43;;
4636;SDS011;2331;48.806;9.140;2024-01-15T02:10:56;21.73;;;9.70;;
4636;SDS011;2331;48.806;9.140;2024-01-15T02:13:22;20.83;;;9.90;;
4636;SDS011;2331;48.806;9.140;2024-01-15T02:15:49;22.25;;;10.73;;
4636;SDS011;2331;48.806;9.140;2024-01-15T02:18:17;24.30;;;11.05;;
4636;SDS011;2331;48.806;9.140;2024-01-15T02:20:45;17.85;;;10.32;;
4636;SDS011;2331;48.806;9.140;2024-01-15T02:23:13;25.15;;;10.77;;
4636;SDS011;2331;48.806;9.140;2024-01-15T02:25:42;23.88;;;11.38;;
4636;SDS011;2331;48.806;9.140;2024-01-15T02:28:10;22.02;;;11.05;;
4636;SDS011;2331;48.806;9.140;2024-01-15T02:30:38;23.88;;;11.70;;
4636;SDS011;2331;48.806;9.140;2024-01-15T02:33:05;23.25;;;11.13;;
4636;SDS011;2331;48.806;9.140;2024-01-15T02:35:32;22.42;;;11.40;;
4636;SDS011;2331;48.806;9.140;2024-01-15T02:38:01;27.58;;;11.55;;
4636;SDS011;2331;48.806;9.140;2024-01-15T02:40:30;21.13;;;11.10;;
4636;SDS011;2331;48.806;9.140;2024-01-15T02:42:57;21.00;;;10.10;;
4636;SDS011;2331;48.806;9.140;2024-01-15T02:45:23;20.90;;;9.68;;
4636;SDS011;2331;48.806;9.140;2024-01-15T02:47:50;21.23;;;9.93;;
4636;SDS011;2331;48.806;9.140;2024-01-15T02:50:17;23.55;;;10.30;;
4636;SDS011;2331;48.806;9.140;2024-01-15T02:52:43;19.95;;;9.88;;
4636;SDS011;2331;48.806;9.140;2024-01-15T02:55:10;18.05;;;9.90;;
4636;SDS011;2331;48.806;9.140;2024-01-15T02:57:38;19.90;;;10.30;;
4636;SDS011;2331;48.806;9.140;2024-01-15T03:00:05;21.00;;;10.82;;
4636;SDS011;2331;48.806;9.140;2024-01-15T03:02:33;21.67;;;9.82;;
4636;SDS011;2331;48.806;9.140;2024-01-15T03:05:04;18.35;;;9.65;;
4636;SDS011;2331;48.806;9.140;2024-01-15T03:07:31;19.73;;;9.38;;
4636;SDS011;2331;48.806;9.140;2024-01-15T03:09:58;21.88;;;10.80;;
4636;SDS011;2331;48.806;9.140;2024-01-15T03:12:25;19.30;;;9.57;;
4636;SDS011;2331;48.806;9.140;2024-01-15T03:14:53;18.73;;;9.93;;
4636;SDS011;2331;48.806;9.140;2024-01-15T03:17:19;19.73;;;11.18;;
4636;SDS011;2331;48.806;9.140;2024-01-15T03:19:46;20.80;;;10.10;;
4636;SDS011;2331;48.806;9.140;2024-01-15T03:22:14;21.20;;;10.70;;
4636;SDS011;2331;48.806;9.140;2024-01-15T03:24:41;19.63;;;10.32;;
4636;SDS011;2331;48.806;9.140;2024-01-15T03:27:08;17.85;;;10.05;;
4636;SDS011;2331;48.806;9.140;2024-01-15T03:29:33;18.93;;;9.60;;
4636;SDS011;2331;48.806;9.140;2024-01-15T03:32:01;18.92;;;9.30;;
4636;SDS011;2331;48.806;9.140;2024-01-15T03:34:28;19.40;;;9.13;;
4636;SDS011;2331;48.806;9.140;2024-01-15T03:36:55;19.60;;;10.13;;
4636;SDS011;2331;48.806;9.140;2024-01-15T03:39:21;25.05;;;11.32;;
4636;SDS011;2331;48.806;9.140;2024-01-15T03:41:48;21.13;;;11.05;;
4636;SDS011;2331;48.806;9.140;2024-01-15T03:44:15;20.65;;;10.77;;
4636;SDS011;2331;48.806;9.140;2024-01-15T03:46:41;20.15;;;10.02;;
4636;SDS011;2331;48.806;9.140;2024-01-15T03:49:09;21.88;;;9.93;;
4636;SDS011;2331;48.806;9.140;2024-01-15T03:51:36;21.65;;;9.65;;
4636;SDS011;2331;48.806;9.140;2024-01-15T03:54:03;18.13;;;8.82;;
4636;SDS011;2331;48.806;9.140;2024-01-15T03:56:30;19.95;;;9.63;;
4636;SDS011;2331;48.806;9.140;2024-01-15T03:58:56;17.52;;;9.30;;
4636;SDS011;2331;48.806;9.140;2024-01-15T04:01:23;18.05;;;9.27;;
4636;SDS011;2331;48.806;9.140;2024-01-15T04:03:50;16.88;;;8.43;;
4636;SDS011;2331;48.806;9.140;2024-01-15T04:06:18;16.20;;;7.40;;
4636;SDS011;2331;48.806;9.140;2024-01-15T04:08:45;16.80;;;8.77;;
4636;SDS011;2331;48.806;9.140;2024-01-15T04:11:11;16.50;;;8.35;;
4636;SDS011;2331;48.806;9.140;2024-01-15T04:13:38;16.13;;;8.13;;
4636;SDS011;2331;48.806;9.140;2024-01-15T04:16:05;16.58;;;8.02;;
4636;SDS011;2331;48.806;9.140;2024-01-15T04:18:31;16.40;;;7.90;;
4636;SDS011;2331;48.806;9.140;2024-01-15T04:20:58;18.52;;;7.95;;
4636;SDS011;2331;48.806;9.140;2024-01-15T04:23:26;16.35;;;8.00;;
4636;SDS011;2331;48.806;9.140;2024-01-15T04:25:53;16.05;;;8.07;;
4636;SDS011;2331;48.806;9.140;2024-01-15T04:28:19;15.35;;;7.35;;
4636;SDS011;2331;48.806;9.140;2024-01-15T04:30:46;13.68;;;7.75;;
4636;SDS011;2331;48.806;9.140;2024-01-15T04:33:13;14.45;;;8.00;;
4636;SDS011;2331;48.806;9.140;2024-01-15T04:35:39;16.30;;;7.88;;
4636;SDS011;2331;48.806;9.140;2024-01-15T04:38:06;17.92;;;8.52;;
4636;SDS011;2331;48.806;9.140;2024-01-15T04:40:34;16.08;;;7.80;;
4636;SDS011;2331;48.806;9.140;2024-01-15T04:43:01;15.10;;;7.93;;
4636;SDS011;2331;48.806;9.140;2024-01-15T04:45:27;15.68;;;8.15;;
4636;SDS011;2331;48.806;9.140;2024-01-15T04:47:55;19.30;;;8.48;;
4636;SDS011;2331;48.806;9.140;2024-01-15T04:50:22;18.80;;;8.40;;
4636;SDS011;2331;48.806;9.140;2024-01-15T04:52:49;16.50;;;8.77;;
4636;SDS011;2331;48.806;9.140;2024-01-15T04:55:16;15.88;;;8.57;;
4636;SDS011;2331;48.806;9.140;2024-01-15T04:57:44;18.10;;;8.88;;
4636;SDS011;2331;48.806;9.140;2024-01-15T05:00:11;19.38;;;8.73;;
4636;SDS011;2331;48.806;9.140;2024-01-15T05:02:39;17.33;;;8.90;;
4636;SDS011;2331;48.806;9.140;2024-01-15T05:05:06;18.75;;;8.98;;
4636;SDS011;2331;48.806;9.140;2024-01-15T05:07:33;18.13;;;8.60;;
4636;SDS011;2331;48.806;9.140;2024-01-15T05:09:59;18.55;;;9.18;;
4636;SDS011;2331;48.806;9.140;2024-01-15T05:12:26;12.82;;;6.95;;
4636;SDS011;2331;48.806;9.140;2024-01-15T05:14:54;14.35;;;8.02;;
4636;SDS011;2331;48.806;9.140;2024-01-15T05:17:21;15.23;;;7.55;;
4636;SDS011;2331;48.806;9.140;2024-01-15T05:19:47;17.00;;;7.85;;
4636;SDS011;2331;48.806;9.140;2024-01-15T05:22:14;15.07;;;7.43;;
4636;SDS011;2331;48.806;9.140;2024-01-15T05:24:41;12.98;;;7.00;;
4636;SDS011;2331;48.806;9.140;2024-01-15T05:27:07;14.02;;;7.80;;
4636;SDS011;2331;48.806;9.140;2024-01-15T05:29:34;14.73;;;7.47;;
4636;SDS011;2331;48.806;9.140;2024-01-15T05:32:02;16.55;;;7.40;;
4636;SDS011;2331;48.806;9.140;2024-01-15T05:34:30;13.45;;;7.07;;
4636;SDS011;2331;48.806;9.140;2024-01-15T05:36:56;14.40;;;7.82;;
4636;SDS011;2331;48.806;9.140;2024-01-15T05:39:23;14.43;;;7.25;;
4636;SDS011;2331;48.806;9.140;2024-01-15T05:41:50;14.10;;;7.70;;
4636;SDS011;2331;48.806;9.140;2024-01-15T05:44:16;11.90;;;6.18;;
4636;SDS011;2331;48.806;9.140;2024-01-15T05:46:43;14.93;;;7.30;;
4636;SDS011;2331;48.806;9.140;2024-01-15T05:49:11;13.57;;;7.75;;
4636;SDS011;2331;48.806;9.140;2024-01-15T05:51:39;13.68;;;7.03;;
4636;SDS011;2331;48.806;9.140;2024-01-15T05:54:05;13.23;;;7.18;;
4636;SDS011;2331;48.806;9.140;2024-01-15T05:56:32;14.27;;;7.53;;
4636;SDS011;2331;48.806;9.140;2024-01-15T05:58:59;12.88;;;6.47;;
4636;SDS011;2331;48.806;9.140;2024-01-15T06:01:26;16.55;;;7.40;;
4636;SDS011;2331;48.806;9.140;2024-01-15T06:03:53;15.65;;;7.05;;
4636;SDS011;2331;48.806;9.140;2024-01-15T06:06:21;18.00;;;9.00;;
4636;SDS011;2331;48.806;9.140;2024-01-15T06:08:48;15.10;;;7.82;;
4636;SDS011;2331;48.806;9.140;2024-01-15T06:11:14;17.02;;;8.10;;
4636;SDS011;2331;48.806;9.140;2024-01-15T06:13:41;13.82;;;6.95;;
4636;SDS011;2331;48.806;9.140;2024-01-15T06:16:12;13.25;;;7.00;;
4636;SDS011;2331;48.806;9.140;2024-01-15T06:18:40;16.95;;;7.97;;
4636;SDS011;2331;48.806;9.140;2024-01-15T06:21:07;15.55;;;8.35;;
4636;SDS011;2331;48.806;9.140;2024-01-15T06:23:36;16.77;;;8.63;;
4636;SDS011;2331;48.806;9.140;2024-01-15T06:26:03;13.77;;;7.85;;
4636;SDS011;2331;48.806;9.140;2024-01-15T06:28:30;13.63;;;8.10;;
4636;SDS011;2331;48.806;9.140;2024-01-15T06:30:57;15.57;;;8.57;;
4636;SDS011;2331;48.806;9.140;2024-01-15T06:33:24;18.95;;;9.63;;
4636;SDS011;2331;48.806;9.140;2024-01-15T06:35:51;19.40;;;9.18;;
4636;SDS011;2331;48.806;9.140;2024-01-15T06:38:17;19.15;;;9.00;;
4636;SDS011;2331;48.806;9.140;2024-01-15T06:40:45;15.02;;;8.35;;
4636;SDS011;2331;48.806;9.140;2024-01-15T06:43:13;18.38;;;8.85;;
4636;SDS011;2331;48.806;9.140;2024-01-15T06:45:40;18.15;;;9.57;;
4636;SDS011;2331;48.806;9.140;2024-01-15T06:48:07;16.20;;;8.07;;
4636;SDS011;2331;48.806;9.140;2024-01-15T06:50:34;18.38;;;8.05;;
4636;SDS011;2331;48.806;9.140;2024-01-15T06:53:00;18.65;;;8.43;;
4636;SDS011;2331;48.806;9.140;2024-01-15T06:55:27;15.00;;;8.57;;
4636;SDS011;2331;48.806;9.140;2024-01-15T06:57:55;14.95;;;7.35;;
4636;SDS011;2331;48.806;9.140;2024-01-15T07:00:22;13.13;;;7.78;;
4636;SDS011;2331;48.806;9.140;2024-01-15T07:02:49;16.48;;;7.82;;
4636;SDS011;2331;48.806;9.140;2024-01-15T07:05:15;16.40;;;7.35;;
4636;SDS011;2331;48.806;9.140;2024-01-15T07:07:42;13.13;;;8.00;;
4636;SDS011;2331;48.806;9.140;2024-01-15T07:10:09;15.27;;;8.07;;
4636;SDS011;2331;48.806;9.140;2024-01-15T07:12:36;14.25;;;7.60;;
4636;SDS011;2331;48.806;9.140;2024-01-15T07:15:04;13.63;;;7.72;;
4636;SDS011;2331;48.806;9.140;2024-01-15T07:17:33;13.48;;;7.10;;
4636;SDS011;2331;48.806;9.140;2024-01-15T07:19:59;12.65;;;6.55;;
4636;SDS011;2331;48.806;9.140;2024-01-15T07:22:26;16.75;;;7.30;;
4636;SDS011;2331;48.806;9.140;2024-01-15T07:24:53;18.00;;;8.35;;
4636;SDS011;2331;48.806;9.140;2024-01-15T07:27:20;15.75;;;8.52;;
4636;SDS011;2331;48.806;9.140;2024-01-15T07:29:47;14.05;;;8.35;;
4636;SDS011;2331;48.806;9.140;2024-01-15T07:32:15;18.10;;;8.50;;
4636;SDS011;2331;48.806;9.140;2024-01-15T07:34:42;13.65;;;8.00;;
4636;SDS011;2331;48.806;9.140;2024-01-15T07:37:08;16.40;;;8.13;;
4636;SDS011;2331;48.806;9.140;2024-01-15T07:39:35;14.40;;;8.40;;
4636;SDS011;2331;48.806;9.140;2024-01-15T07:42:02;16.63;;;8.40;;
4636;SDS011;2331;48.806;9.140;2024-01-15T07:44:29;15.80;;;8.13;;
4636;SDS011;2331;48.806;9.140;2024-01-15T07:46:55;13.70;;;7.53;;
4636;SDS011;2331;48.806;9.140;2024-01-15T07:49:24;17.75;;;8.63;;
4636;SDS011;2331;48.806;9.140;2024-01-15T07:51:50;15.15;;;8.15;;
4636;SDS011;2331;48.806;9.140;2024-01-15T07:54:17;17.15;;;8.23;;
4636;SDS011;2331;48.806;9.140;2024-01-15T07:56:53;17.75;;;8.73;;
4636;SDS011;2331;48.806;9.140;2024-01-15T07:59:21;16.05;;;8.63;;
4636;SDS011;2331;48.806;9.140;2024-01-15T08:01:48;17.67;;;9.13;;
4636;SDS011;2331;48.806;9.140;2024-01-15T08:04:14;17.75;;;8.43;;
4636;SDS011;2331;48.806;9.140;2024-01-15T08:06:42;20.73;;;9.75;;
4636;SDS011;2331;48.806;9.140;2024-01-15T08:09:10;18.30;;;8.25;;
4636;SDS011;2331;48.806;9.140;2024-01-15T08:11:39;16.73;;;9.23;;
4636;SDS011;2331;48.806;9.140;2024-01-15T08:14:07;16.17;;;8.52;;
4636;SDS011;2331;48.806;9.140;2024-01-15T08:16:33;18.30;;;9.00;;
4636;SDS011;2331;48.806;9.140;2024-01-15T08:19:00;15.70;;;8.65;;
4636;SDS011;2331;48.806;9.140;2024-01-15T08:21:27;18.55;;;9.80;;
4636;SDS011;2331;48.806;9.140;2024-01-15T08:23:56;15.13;;;8.27;;
4636;SDS011;2331;48.806;9.140;2024-01-15T08:26:23;15.45;;;8.73;;
4636;SDS011;2331;48.806;9.140;2024-01-15T08:28:50;16.40;;;8.73;;
4636;SDS011;2331;48.806;9.140;2024-01-15T08:31:17;14.93;;;8.10;;
4636;SDS011;2331;48.806;9.140;2024-01-15T08:33:44;13.43;;;7.40;;
4636;SDS011;2331;48.806;9.140;2024-01-15T08:36:11;12.82;;;7.20;;
4636;SDS011;2331;48.806;9.140;2024-01-15T08:38:37;13.23;;;7.40;;
4636;SDS011;2331;48.806;9.140;2024-01-15T08:41:06;16.83;;;8.27;;
4636;SDS011;2331;48.806;9.140;2024-01-15T08:43:33;14.20;;;7.53;;
4636;SDS011;2331;48.806;9.140;2024-01-15T08:46:00;16.02;;;7.55;;
4636;SDS011;2331;48.806;9.140;2024-01-15T08:48:27;15.18;;;7.28;;
4636;SDS011;2331;48.806;9.140;2024-01-15T08:50:54;14.25;;;6.80;;
4636;SDS011;2331;48.806;9.140;2024-01-15T08:53:21;13.68;;;7.00;;
4636;SDS011;2331;48.806;9.140;2024-01-15T08:55:49;11.38;;;6.38;;
4636;SDS011;2331;48.806;9.140;2024-01-15T08:58:17;13.23;;;6.53;;
4636;SDS011;2331;48.806;9.140;2024-01-15T09:00:44;11.45;;;6.07;;
4636;SDS011;2331;48.806;9.140;2024-01-15T09:03:10;11.32;;;5.95;;
4636;SDS011;2331;48.806;9.140;2024-01-15T09:05:37;11.60;;;5.85;;
4636;SDS011;2331;48.806;9.140;2024-01-15T09:08:05;14.02;;;6.80;;
4636;SDS011;2331;48.806;9.140;2024-01-15T09:10:32;9.60;;;6.20;;
4636;SDS011;2331;48.806;9.140;2024-01-15T09:12:59;10.88;;;6.00;;
4636;SDS011;2331;48.806;9.140;2024-01-15T09:15:27;12.57;;;6.68;;
4636;SDS011;2331;48.806;9.140;2024-01-15T09:17:54;10.23;;;6.30;;
4636;SDS011;2331;48.806;9.140;2024-01-15T09:20:22;10.10;;;5.63;;
4636;SDS011;2331;48.806;9.140;2024-01-15T09:22:49;10.98;;;6.40;;
4636;SDS011;2331;48.806;9.140;2024-01-15T09:25:15;11.10;;;5.78;;
4636;SDS011;2331;48.806;9.140;2024-01-15T09:27:42;13.57;;;6.38;;
4636;SDS011;2331;48.806;9.140;2024-01-15T09:30:09;10.55;;;6.80;;
4636;SDS011;2331;48.806;9.140;2024-01-15T09:32:38;12.20;;;6.68;;
4636;SDS011;2331;48.806;9.140;2024-01-15T09:35:05;10.20;;;5.63;;
4636;SDS011;2331;48.806;9.140;2024-01-15T09:37:32;9.57;;;5.30;;
4636;SDS011;2331;48.806;9.140;2024-01-15T09:39:59;10.35;;;5.35;;
4636;SDS011;2331;48.806;9.140;2024-01-15T09:42:25;10.00;;;5.70;;
4636;SDS011;2331;48.806;9.140;2024-01-15T09:44:52;10.20;;;5.25;;
4636;SDS011;2331;48.806;9.140;2024-01-15T09:47:19;10.40;;;5.55;;
4636;SDS011;2331;48.806;9.140;2024-01-15T09:49:48;9.20;;;5.50;;
4636;SDS011;2331;48.806;9.140;2024-01-15T09:52:14;9.48;;;5.45;;
4636;SDS011;2331;48.806;9.140;2024-01-15T09:54:44;10.52;;;5.50;;
4636;SDS011;2331;48.806;9.140;2024-01-15T09:57:12;8.93;;;5.13;;
4636;SDS011;2331;48.806;9.140;2024-01-15T09:59:39;11.43;;;5.63;;
4636;SDS011;2331;48.806;9.140;2024-01-15T10:02:08;10.70;;;5.30;;
4636;SDS011;2331;48.806;9.140;2024-01-15T10:04:38;10.75;;;5.68;;
4636;SDS011;2331;48.806;9.140;2024-01-15T10:07:06;8.80;;;5.00;;
4636;SDS011;2331;48.806;9.140;2024-01-15T10:09:34;10.93;;;5.68;;
4636;SDS011;2331;48.806;9.140;2024-01-15T10:12:01;8.70;;;5.10;;
4636;SDS011;2331;48.806;9.140;2024-01-15T10:14:28;11.55;;;5.47;;
4636;SDS011;2331;48.806;9.140;2024-01-15T10:16:55;10.95;;;5.88;;
4636;SDS011;2331;48.806;9.140;2024-01-15T10:19:22;8.70;;;5.25;;
4636;SDS011;2331;48.806;9.140;2024-01-15T10:21:49;9.15;;;5.13;;
4636;SDS011;2331;48.806;9.140;2024-01-15T10:24:17;10.05;;;5.30;;
4636;SDS011;2331;48.806;9.140;2024-01-15T10:26:44;10.05;;;5.47;;
4636;SDS011;2331;48.806;9.140;2024-01-15T10:29:10;6.97;;;4.55;;
4636;SDS011;2331;48.806;9.140;2024-01-15T10:31:37;9.88;;;5.20;;
4636;SDS011;2331;48.806;9.140;2024-01-15T10:34:10;9.00;;;5.05;;
4636;SDS011;2331;48.806;9.140;2024-01-15T10:36:40;8.18;;;4.70;;
4636;SDS011;2331;48.806;9.140;2024-01-15T10:39:07;8.85;;;4.43;;
4636;SDS011;2331;48.806;9.140;2024-01-15T10:41:35;14.07;;;5.45;;
4636;SDS011;2331;48.806;9.140;2024-01-15T10:44:01;8.90;;;5.10;;
4636;SDS011;2331;48.806;9.140;2024-01-15T10:46:28;8.52;;;5.20;;
4636;SDS011;2331;48.806;9.140;2024-01-15T10:48:55;8.25;;;4.43;;
4636;SDS011;2331;48.806;9.140;2024-01-15T10:51:23;9.43;;;4.55;;
4636;SDS011;2331;48.806;9.140;2024-01-15T10:53:51;8.38;;;4.35;;
4636;SDS011;2331;48.806;9.140;2024-01-15T10:56:19;11.00;;;4.72;;
4636;SDS011;2331;48.806;9.140;2024-01-15T10:58:50;8.43;;;4.60;;
4636;SDS011;2331;48.806;9.140;2024-01-15T11:01:16;8.23;;;4.78;;
4636;SDS011;2331;48.806;9.140;2024-01-15T11:03:44;10.00;;;4.65;;
4636;SDS011;2331;48.806;9.140;2024-01-15T11:06:18;8.38;;;4.10;;
4636;SDS011;2331;48.806;9.140;2024-01-15T11:08:46;8.73;;;4.55;;
4636;SDS011;2331;48.806;9.140;2024-01-15T11:11:14;7.00;;;4.22;;
4636;SDS011;2331;48.806;9.140;2024-01-15T11:13:42;7.95;;;4.25;;
4636;SDS011;2331;48.806;9.140;2024-01-15T11:16:11;9.48;;;4.70;;
4636;SDS011;2331;48.806;9.140;2024-01-15T11:18:40;6.72;;;4.75;;
4636;SDS011;2331;48.806;9.140;2024-01-15T11:21:19;9.15;;;5.15;;
4636;SDS011;2331;48.806;9.140;2024-01-15T11:23:48;11.50;;;5.93;;
4636;SDS011;2331;48.806;9.140;2024-01-15T11:26:29;8.02;;;4.80;;
4636;SDS011;2331;48.806;9.140;2024-01-15T11:28:57;8.40;;;4.85;;
4636;SDS011;2331;48.806;9.140;2024-01-15T11:31:30;11.25;;;5.20;;
4636;SDS011;2331;48.806;9.140;2024-01-15T11:34:49;9.48;;;4.80;;
4636;SDS011;2331;48.806;9.140;2024-01-15T11:37:22;12.32;;;6.75;;
4636;SDS011;2331;48.806;9.140;2024-01-15T11:39:51;8.18;;;5.07;;
4636;SDS011;2331;48.806;9.140;2024-01-15T11:42:19;8.35;;;4.78;;
4636;SDS011;2331;48.806;9.140;2024-01-15T11:44:47;13.20;;;5.10;;
4636;SDS011;2331;48.806;9.140;2024-01-15T11:50:38;10.75;;;5.10;;
4636;SDS011;2331;48.806;9.140;2024-01-15T11:53:09;9.52;;;5.00;;
4636;SDS011;2331;48.806;9.140;2024-01-15T11:55:43;11.75;;;5.55;;
4636;SDS011;2331;48.806;9.140;2024-01-15T11:58:13;9.23;;;5.18;;
4636;SDS011;2331;48.806;9.140;2024-01-15T12:00:43;9.13;;;5.18;;
4636;SDS011;2331;48.806;9.140;2024-01-15T12:03:11;12.85;;;5.25;;
4636;SDS011;2331;48.806;9.140;2024-01-15T12:05:40;10.85;;;5.70;;
4636;SDS011;2331;48.806;9.140;2024-01-15T12:08:08;12.38;;;5.50;;
4636;SDS011;2331;48.806;9.140;2024-01-15T12:10:36;9.80;;;5.22;;
4636;SDS011;2331;48.806;9.140;2024-01-15T12:13:05;11.35;;;5.25;;
4636;SDS011;2331;48.806;9.140;2024-01-15T12:15:36;7.90;;;5.10;;
4636;SDS011;2331;48.806;9.140;2024-01-15T12:18:07;9.80;;;5.22;;
4636;SDS011;2331;48.806;9.140;2024-01-15T12:20:34;10.23;;;5.30;;
4636;SDS011;2331;48.806;9.140;2024-01-15T12:23:03;8.73;;;5.38;;
4636;SDS011;2331;48.806;9.140;2024-01-15T12:25:30;10.45;;;5.78;;
4636;SDS011;2331;48.806;9.140;2024-01-15T12:27:58;9.25;;;5.15;;
4636;SDS011;2331;48.806;9.140;2024-01-15T12:30:26;8.00;;;5.30;;
4636;SDS011;2331;48.806;9.140;2024-01-15T12:32:54;11.18;;;6.70;;
4636;SDS011;2331;48.806;9.140;2024-01-15T12:35:21;9.80;;;5.38;;
4636;SDS011;2331;48.806;9.140;2024-01-15T12:37:51;8.90;;;4.80;;
4636;SDS011;2331;48.806;9.140;2024-01-15T12:40:22;12.27;;;6.47;;
4636;SDS011;2331;48.806;9.140;2024-01-15T12:42:49;8.50;;;4.80;;
4636;SDS011;2331;48.806;9.140;2024-01-15T12:45:16;8.50;;;5.05;;
4636;SDS011;2331;48.806;9.140;2024-01-15T12:47:44;8.48;;;4.85;;
4636;SDS011;2331;48.806;9.140;2024-01-15T12:50:11;10.00;;;5.20;;
4636;SDS011;2331;48.806;9.140;2024-01-15T12:52:39;11.45;;;5.13;;
4636;SDS011;2331;48.806;9.140;2024-01-15T12:55:07;7.55;;;4.82;;
4636;SDS011;2331;48.806;9.140;2024-01-15T12:57:36;10.30;;;4.95;;
4636;SDS011;2331;48.806;9.140;2024-01-15T13:00:04;12.15;;;6.70;;
4636;SDS011;2331;48.806;9.140;2024-01-15T13:02:33;8.65;;;5.05;;
4636;SDS011;2331;48.806;9.140;2024-01-15T13:05:00;8.15;;;4.70;;
4636;SDS011;2331;48.806;9.140;2024-01-15T13:07:29;10.73;;;5.70;;
4636;SDS011;2331;48.806;9.140;2024-01-15T13:09:55;8.25;;;4.70;;
4636;SDS011;2331;48.806;9.140;2024-01-15T13:12:22;7.53;;;4.47;;
4636;SDS011;2331;48.806;9.140;2024-01-15T13:14:50;8.10;;;4.38;;
4636;SDS011;2331;48.806;9.140;2024-01-15T13:17:17;8.10;;;4.70;;
4636;SDS011;2331;48.806;9.140;2024-01-15T13:19:45;6.85;;;3.78;;
4636;SDS011;2331;48.806;9.140;2024-01-15T13:22:12;8.00;;;4.15;;
4636;SDS011;2331;48.806;9.140;2024-01-15T13:24:39;11.43;;;4.35;;
4636;SDS011;2331;48.806;9.140;2024-01-15T13:27:06;6.38;;;3.83;;
4636;SDS011;2331;48.806;9.140;2024-01-15T13:29:33;6.68;;;3.47;;
4636;SDS011;2331;48.806;9.140;2024-01-15T13:32:01;4.47;;;3.05;;
4636;SDS011;2331;48.806;9.140;2024-01-15T13:34:28;4.85;;;2.85;;
4636;SDS011;2331;48.806;9.140;2024-01-15T13:36:55;4.70;;;2.80;;
4636;SDS011;2331;48.806;9.140;2024-01-15T13:39:22;6.05;;;3.80;;
4636;SDS011;2331;48.806;9.140;2024-01-15T13:41:49;6.38;;;3.17;;
4636;SDS011;2331;48.806;9.140;2024-01-15T13:44:15;4.97;;;3.17;;
4636;SDS011;2331;48.806;9.140;2024-01-15T13:46:42;4.30;;;3.20;;
4636;SDS011;2331;48.806;9.140;2024-01-15T13:49:11;4.88;;;3.05;;
4636;SDS011;2331;48.806;9.140;2024-01-15T13:51:37;6.80;;;3.25;;
4636;SDS011;2331;48.806;9.140;2024-01-15T13:54:05;4.00;;;3.47;;
4636;SDS011;2331;48.806;9.140;2024-01-15T13:56:32;4.55;;;3.28;;
4636;SDS011;2331;48.806;9.140;2024-01-15T13:59:00;6.03;;;3.58;;
4636;SDS011;2331;48.806;9.140;2024-01-15T14:01:29;5.70;;;3.20;;
4636;SDS011;2331;48.806;9.140;2024-01-15T14:03:56;5.95;;;3.30;;
4636;SDS011;2331;48.806;9.140;2024-01-15T14:06:24;6.05;;;3.45;;
4636;SDS011;2331;48.806;9.140;2024-01-15T14:08:51;5.20;;;3.35;;
4636;SDS011;2331;48.806;9.140;2024-01-15T14:11:18;7.57;;;4.10;;
4636;SDS011;2331;48.806;9.140;2024-01-15T14:13:45;5.28;;;3.30;;
4636;SDS011;2331;48.806;9.140;2024-01-15T14:16:12;5.32;;;3.58;;
4636;SDS011;2331;48.806;9.140;2024-01-15T14:18:39;4.60;;;3.58;;
4636;SDS011;2331;48.806;9.140;2024-01-15T14:21:05;6.13;;;3.80;;
4636;SDS011;2331;48.806;9.140;2024-01-15T14:23:33;5.13;;;3.50;;
4636;SDS011;2331;48.806;9.140;2024-01-15T14:26:00;5.55;;;3.65;;
4636;SDS011;2331;48.806;9.140;2024-01-15T14:28:27;5.32;;;3.50;;
4636;SDS011;2331;48.806;9.140;2024-01-15T14:30:53;5.95;;;3.75;;
4636;SDS011;2331;48.806;9.140;2024-01-15T14:33:23;5.80;;;4.10;;
4636;SDS011;2331;48.806;9.140;2024-01-15T14:35:49;6.82;;;3.70;;
4636;SDS011;2331;48.806;9.140;2024-01-15T14:38:16;7.05;;;4.30;;
4636;SDS011;2331;48.806;9.140;2024-01-15T14:40:44;7.35;;;4.40;;
4636;SDS011;2331;48.806;9.140;2024-01-15T14:43:11;7.15;;;5.00;;
4636;SDS011;2331;48.806;9.140;2024-01-15T14:45:37;8.25;;;5.85;;
4636;SDS011;2331;48.806;9.140;2024-01-15T14:48:04;12.95;;;6.88;;
4636;SDS011;2331;48.806;9.140;2024-01-15T14:50:31;11.00;;;6.50;;
4636;SDS011;2331;48.806;9.140;2024-01-15T14:52:58;9.98;;;6.43;;
4636;SDS011;2331;48.806;9.140;2024-01-15T14:55:25;8.60;;;5.75;;
4636;SDS011;2331;48.806;9.140;2024-01-15T14:57:53;10.55;;;6.50;;
4636;SDS011;2331;48.806;9.140;2024-01-15T15:00:19;11.45;;;6.50;;
4636;SDS011;2331;48.806;9.140;2024-01-15T15:02:46;10.18;;;6.22;;
4636;SDS011;2331;48.806;9.140;2024-01-15T15:05:13;9.57;;;6.80;;
4636;SDS011;2331;48.806;9.140;2024-01-15T15:07:41;9.93;;;6.45;;